createdAt,value
2018-07-07T00:00:28.924Z,67.30
2018-07-07T00:02:57.435Z,67.20
2018-07-07T00:05:25.942Z,67.20
2018-07-07T00:07:54.380Z,67.40
2018-07-07T00:10:23.029Z,67.40
2018-07-07T00:12:51.499Z,67.20
2018-07-07T00:15:21.083Z,67.30
2018-07-07T00:17:50.095Z,67.50
2018-07-07T00:20:18.847Z,67.50
2018-07-07T00:22:47.958Z,67.40
2018-07-07T00:25:18.520Z,67.50
2018-07-07T00:27:47.444Z,67.50
2018-07-07T00:36:18.506Z,67.80
2018-07-07T00:38:47.087Z,67.90
2018-07-07T00:43:49.940Z,68.10
2018-07-07T00:46:18.576Z,68.10
2018-07-07T00:48:47.860Z,68.10
2018-07-07T00:51:16.385Z,68.20
2018-07-07T00:53:44.788Z,68.00
2018-07-07T00:56:13.164Z,68.30
2018-07-07T00:58:41.708Z,68.30
2018-07-07T01:18:14.023Z,68.90
2018-07-07T01:20:42.624Z,69.00
2018-07-07T01:23:11.253Z,68.90
2018-07-07T01:25:39.626Z,69.00
2018-07-07T01:42:21.624Z,69.20
2018-07-07T01:44:50.071Z,69.20
2018-07-07T01:47:18.524Z,69.30
2018-07-07T01:49:47.012Z,69.30
2018-07-07T01:52:15.425Z,69.40
2018-07-07T01:54:44.054Z,69.40
2018-07-07T02:00:10.356Z,69.50
2018-07-07T02:02:38.755Z,69.60
2018-07-07T02:05:07.245Z,69.60
2018-07-07T02:07:35.715Z,69.50
2018-07-07T02:27:08.202Z,69.60
2018-07-07T02:35:37.452Z,69.50
2018-07-07T02:38:05.888Z,69.60
2018-07-07T02:40:34.309Z,69.50
2018-07-07T02:43:02.805Z,69.80
2018-07-07T02:45:31.492Z,69.60
2018-07-07T02:47:59.960Z,69.60
2018-07-07T02:50:28.608Z,69.70
2018-07-07T02:52:56.996Z,69.80
2018-07-07T02:55:25.413Z,69.80
2018-07-07T02:57:53.854Z,69.80
2018-07-07T03:17:24.976Z,70.30
2018-07-07T03:19:53.452Z,70.40
2018-07-07T03:22:21.889Z,70.40
2018-07-07T03:24:50.661Z,70.50
2018-07-07T03:38:42.927Z,70.70
2018-07-07T03:41:11.304Z,70.80
2018-07-07T03:43:39.600Z,70.80
2018-07-07T03:46:07.984Z,70.80
2018-07-07T03:48:36.423Z,70.90
2018-07-07T03:51:04.815Z,70.80
2018-07-07T03:53:33.346Z,70.90
2018-07-07T03:56:01.725Z,71.00
2018-07-07T03:58:30.155Z,71.00
2018-07-07T04:00:58.453Z,71.10
2018-07-07T04:03:26.813Z,71.10
2018-07-07T04:05:55.188Z,71.20
2018-07-07T04:08:23.790Z,71.40
2018-07-07T04:10:52.276Z,71.40
2018-07-07T04:13:20.632Z,71.40
2018-07-07T04:15:48.963Z,71.50
2018-07-07T04:18:25.553Z,71.60
2018-07-07T04:20:53.920Z,71.60
2018-07-07T04:23:22.288Z,71.60
2018-07-07T04:25:53.660Z,71.70
2018-07-07T04:28:22.120Z,71.70
2018-07-07T04:30:50.504Z,71.80
2018-07-07T04:33:18.819Z,71.90
2018-07-07T04:35:47.624Z,71.80
2018-07-07T04:38:16.227Z,71.70
2018-07-07T04:40:44.860Z,71.60
2018-07-07T04:43:13.361Z,71.50
2018-07-07T04:45:41.731Z,71.60
2018-07-07T04:48:10.198Z,71.70
2018-07-07T04:50:38.540Z,71.60
2018-07-07T04:53:06.994Z,71.80
2018-07-07T04:55:35.406Z,71.80
2018-07-07T04:58:03.840Z,71.70
2018-07-07T05:00:50.376Z,71.70
2018-07-07T05:03:18.721Z,71.70
2018-07-07T05:05:47.142Z,71.90
2018-07-07T05:08:15.672Z,72.00
2018-07-07T05:10:44.693Z,72.20
2018-07-07T05:21:56.595Z,72.40
2018-07-07T05:24:25.160Z,72.40
2018-07-07T05:26:53.796Z,72.40
2018-07-07T05:29:22.161Z,72.30
2018-07-07T05:31:50.533Z,72.20
2018-07-07T05:34:18.805Z,72.10
2018-07-07T05:36:47.174Z,72.00
2018-07-07T05:39:15.838Z,72.00
2018-07-07T05:41:44.188Z,71.80
2018-07-07T05:50:14.927Z,71.40
2018-07-07T05:52:43.262Z,71.10
2018-07-07T06:09:40.243Z,70.40
2018-07-07T06:12:09.173Z,70.20
2018-07-07T06:14:37.529Z,70.00
2018-07-07T06:17:05.907Z,70.00
2018-07-07T06:19:34.240Z,70.00
2018-07-07T06:22:02.602Z,69.70
2018-07-07T06:24:31.032Z,69.50
2018-07-07T06:26:59.800Z,69.40
2018-07-07T06:29:28.116Z,69.40
2018-07-07T06:31:56.412Z,69.40
2018-07-07T06:34:24.912Z,69.30
2018-07-07T06:36:53.271Z,69.30
2018-07-07T06:39:21.667Z,69.10
2018-07-07T06:41:50.284Z,69.20
2018-07-07T06:44:18.648Z,69.10
2018-07-07T06:46:47.065Z,69.10
2018-07-07T06:49:16.414Z,69.00
2018-07-07T06:51:44.880Z,68.80
2018-07-07T06:54:15.200Z,68.40
2018-07-07T06:56:43.763Z,68.40
2018-07-07T06:59:12.298Z,68.20
2018-07-07T07:01:41.088Z,68.00
2018-07-07T07:04:09.892Z,67.80
2018-07-07T07:06:38.383Z,67.50
2018-07-07T07:09:12.144Z,67.50
2018-07-07T07:11:50.904Z,67.50
2018-07-07T07:14:25.023Z,67.40
2018-07-07T07:17:10.264Z,66.90
2018-07-07T07:22:45.578Z,66.40
2018-07-07T07:25:14.140Z,66.00
2018-07-07T07:27:42.680Z,66.20
2018-07-07T07:41:36.531Z,65.50
2018-07-07T07:44:05.030Z,65.20
2018-07-07T07:46:33.664Z,65.00
2018-07-07T07:49:02.152Z,64.80
2018-07-07T07:51:30.705Z,64.60
2018-07-07T07:53:59.275Z,64.40
2018-07-07T07:56:28.460Z,63.80
2018-07-07T08:10:33.654Z,63.20
2018-07-07T08:13:02.111Z,62.80
2018-07-07T08:15:30.526Z,62.60
2018-07-07T08:17:58.924Z,62.30
2018-07-07T08:20:30.427Z,62.30
2018-07-07T08:22:59.121Z,62.20
2018-07-07T08:25:28.349Z,61.80
2018-07-07T08:27:57.169Z,61.30
2018-07-07T08:30:25.527Z,61.20
2018-07-07T08:32:53.892Z,61.00
2018-07-07T08:35:22.212Z,61.00
2018-07-07T08:37:50.889Z,61.10
2018-07-07T08:40:19.401Z,60.80
2018-07-07T08:42:48.257Z,60.80
2018-07-07T08:45:16.780Z,60.80
2018-07-07T08:47:45.292Z,60.60
2018-07-07T08:50:13.917Z,59.70
2018-07-07T08:52:42.389Z,59.90
2018-07-07T08:55:10.908Z,59.90
2018-07-07T08:57:39.776Z,59.60
2018-07-07T09:00:08.206Z,59.10
2018-07-07T09:02:36.830Z,59.00
2018-07-07T09:05:09.592Z,59.20
2018-07-07T09:07:39.879Z,59.00
2018-07-07T09:12:43.371Z,58.80
2018-07-07T09:15:11.978Z,58.90
2018-07-07T09:17:40.469Z,58.80
2018-07-07T09:20:12.484Z,58.40
2018-07-07T09:22:41.018Z,58.40
2018-07-07T09:25:09.489Z,58.40
2018-07-07T09:27:38.119Z,58.40
2018-07-07T09:30:06.655Z,58.20
2018-07-07T09:32:35.593Z,58.40
2018-07-07T09:35:05.387Z,58.70
2018-07-07T09:37:33.915Z,57.90
2018-07-07T09:40:08.060Z,57.80
2018-07-07T09:42:36.572Z,57.80
2018-07-07T09:45:05.036Z,57.70
2018-07-07T10:04:36.561Z,56.70
2018-07-07T10:07:05.208Z,56.80
2018-07-07T10:09:33.931Z,56.80
2018-07-07T10:12:02.636Z,56.60
2018-07-07T10:14:31.376Z,56.80
2018-07-07T10:17:00.108Z,56.80
2018-07-07T10:19:28.681Z,56.80
2018-07-07T10:21:57.234Z,56.50
2018-07-07T10:24:32.818Z,56.20
2018-07-07T10:27:05.931Z,55.70
2018-07-07T10:29:37.958Z,55.90
2018-07-07T10:32:07.114Z,56.10
2018-07-07T10:34:38.444Z,56.10
2018-07-07T10:54:52.244Z,54.50
2018-07-07T10:57:24.917Z,54.00
2018-07-07T10:59:54.017Z,54.00
2018-07-07T11:02:22.973Z,53.70
2018-07-07T11:04:51.769Z,53.60
2018-07-07T11:16:13.869Z,53.80
2018-07-07T11:18:42.497Z,53.00
2018-07-07T11:38:15.161Z,51.50
2018-07-07T11:40:43.737Z,52.00
2018-07-07T11:43:14.544Z,52.00
2018-07-07T11:45:43.410Z,51.80
2018-07-07T12:05:19.769Z,50.40
2018-07-07T12:08:00.500Z,50.40
2018-07-07T12:10:18.945Z,50.20
2018-07-07T12:12:49.110Z,50.10
2018-07-07T12:15:47.772Z,50.00
2018-07-07T12:35:31.871Z,49.30
2018-07-07T12:55:11.027Z,49.00
2018-07-07T13:00:44.385Z,49.30
2018-07-07T13:03:12.837Z,48.70
2018-07-07T13:05:42.230Z,48.60
2018-07-07T13:08:11.133Z,48.90
2018-07-07T13:10:41.451Z,48.90
2018-07-07T13:13:10.325Z,49.00
2018-07-07T13:15:39.080Z,48.80
2018-07-07T13:35:14.383Z,48.20
2018-07-07T13:37:44.106Z,47.90
2018-07-07T13:40:17.839Z,48.40
2018-07-07T14:11:38.770Z,47.80
2018-07-07T14:24:37.874Z,47.00
2018-07-07T14:27:13.369Z,47.60
2018-07-07T14:47:00.068Z,47.60
2018-07-07T14:49:46.420Z,47.70
2018-07-07T14:55:42.236Z,46.80
2018-07-07T14:58:11.458Z,46.70
2018-07-07T15:09:19.105Z,46.30
2018-07-07T15:11:51.353Z,46.30
2018-07-07T15:23:39.029Z,46.70
2018-07-07T15:26:08.021Z,46.10
2018-07-07T15:28:36.952Z,46.20
2018-07-07T15:31:11.213Z,46.40
2018-07-07T15:33:39.770Z,45.80
2018-07-07T15:36:11.141Z,46.20
2018-07-07T15:38:40.862Z,46.30
2018-07-07T15:41:14.316Z,46.40
2018-07-07T15:46:24.446Z,46.80
2018-07-07T15:48:58.049Z,46.60
2018-07-07T15:51:28.789Z,46.70
2018-07-07T15:53:58.312Z,46.20
2018-07-07T15:56:31.540Z,46.60
2018-07-07T16:02:01.693Z,46.00
2018-07-07T16:04:31.700Z,45.60
2018-07-07T16:07:00.527Z,44.90
2018-07-07T16:09:30.324Z,45.10
2018-07-07T16:12:01.827Z,45.60
2018-07-07T16:14:36.915Z,45.70
2018-07-07T16:34:10.315Z,44.70
2018-07-07T16:53:43.381Z,44.10
2018-07-07T16:56:11.912Z,43.60
2018-07-07T16:58:40.467Z,43.40
2018-07-07T17:01:09.055Z,43.10
2018-07-07T17:03:45.970Z,43.70
2018-07-07T17:06:16.163Z,43.60
2018-07-07T17:08:54.612Z,43.20
2018-07-07T17:11:23.031Z,42.80
2018-07-07T17:13:51.666Z,42.90
2018-07-07T17:16:20.108Z,43.20
2018-07-07T17:18:48.827Z,43.20
2018-07-07T17:21:17.638Z,43.50
2018-07-07T17:23:47.959Z,43.90
2018-07-07T17:26:16.851Z,44.30
2018-07-07T17:28:50.192Z,44.60
2018-07-07T17:31:18.985Z,44.50
2018-07-07T17:33:49.520Z,44.80
2018-07-07T17:41:18.887Z,44.90
2018-07-07T17:43:49.311Z,44.90
2018-07-07T17:46:18.298Z,45.30
2018-07-07T17:48:48.417Z,45.60
2018-07-07T17:54:06.604Z,45.80
2018-07-07T18:02:23.283Z,46.40
2018-07-07T18:04:52.567Z,46.60
2018-07-07T18:27:29.221Z,47.40
2018-07-07T18:29:58.568Z,47.30
2018-07-07T18:32:35.476Z,47.80
2018-07-07T18:35:04.989Z,47.80
2018-07-07T18:54:36.340Z,48.40
2018-07-07T18:57:06.334Z,48.40
2018-07-07T18:59:35.167Z,48.70
2018-07-07T19:02:05.404Z,48.70
2018-07-07T19:04:34.354Z,48.90
2018-07-07T19:07:03.446Z,49.00
2018-07-07T19:09:32.533Z,48.90
2018-07-07T19:12:02.172Z,49.00
2018-07-07T19:14:31.224Z,49.00
2018-07-07T19:16:59.894Z,49.30
2018-07-07T19:19:28.775Z,49.30
2018-07-07T19:22:03.606Z,49.40
2018-07-07T19:33:03.452Z,49.70
2018-07-07T19:35:37.265Z,49.80
2018-07-07T19:38:06.243Z,50.50
2018-07-07T19:40:35.282Z,50.00
2018-07-07T19:43:04.164Z,50.10
2018-07-07T19:45:33.229Z,50.20
2018-07-07T19:48:02.082Z,50.30
2018-07-07T19:50:31.408Z,50.30
2018-07-07T19:53:01.255Z,50.40
2018-07-07T19:55:30.826Z,50.60
2018-07-07T19:57:59.480Z,50.60
2018-07-07T20:00:30.121Z,50.50
2018-07-07T20:02:58.844Z,50.50
2018-07-07T20:05:33.204Z,50.60
2018-07-07T20:25:17.324Z,51.10
2018-07-07T20:27:51.566Z,51.10
2018-07-07T20:30:26.079Z,51.30
2018-07-07T20:32:55.574Z,51.30
2018-07-07T20:35:25.673Z,51.50
2018-07-07T20:55:00.216Z,52.20
2018-07-07T20:57:28.844Z,52.40
2018-07-07T20:59:58.129Z,52.50
2018-07-07T21:19:36.289Z,53.20
2018-07-07T21:22:05.793Z,53.20
2018-07-07T21:24:34.426Z,53.30
2018-07-07T21:27:03.194Z,53.30
2018-07-07T21:29:31.925Z,53.70
2018-07-07T21:32:01.733Z,53.60
2018-07-07T21:51:33.217Z,54.20
2018-07-07T21:56:36.416Z,54.50
2018-07-07T21:59:10.260Z,54.60
2018-07-07T22:01:59.948Z,54.70
2018-07-07T22:04:34.683Z,54.90
2018-07-07T22:24:06.017Z,55.20
2018-07-07T22:26:34.745Z,55.30
2018-07-07T22:29:04.388Z,55.40
2018-07-07T22:48:39.065Z,56.10
2018-07-07T22:51:08.232Z,56.00
2018-07-07T22:53:36.958Z,56.10
2018-07-07T23:13:08.184Z,56.50
2018-07-07T23:15:36.972Z,56.70
2018-07-07T23:18:06.260Z,56.70
2018-07-07T23:20:35.163Z,56.90
2018-07-07T23:23:04.050Z,56.80
2018-07-07T23:25:32.691Z,57.00
2018-07-07T23:28:01.508Z,57.00
2018-07-07T23:30:30.218Z,57.00
2018-07-07T23:50:02.070Z,57.60
2018-07-07T23:52:30.927Z,57.70
2018-07-07T23:54:59.731Z,57.70
2018-07-07T23:57:28.409Z,57.90
2018-07-07T23:59:57.797Z,57.90
